Time;durP1;ratioP1;P1;durP2;ratioP2;P2;SDS_P1;SDS_P2;PMS_P1;PMS_P2;Temp;Humidity;BMP_temperature;BMP_pressure;BME280_temperature;BME280_humidity;BME280_pressure;Samples;Min_cycle;Max_cycle;Signal;HPM_P1;HPM_P2
2022/03/07 00:01:01;;;;;;;15.95;12.63;;;1.30;99.90;;;;;;6181660;23;20013;-78
2022/03/07 00:03:27;;;;;;;17.73;13.25;;;1.30;99.90;;;;;;6182276;23;20028;-77
2022/03/07 00:05:52;;;;;;;17.30;12.02;;;1.30;99.90;;;;;;6182299;23;20074;-78
2022/03/07 00:08:19;;;;;;;15.48;12.40;;;1.20;99.90;;;;;;6182491;23;20429;-77
2022/03/07 00:10:44;;;;;;;17.65;13.13;;;1.20;99.90;;;;;;6209006;23;20016;-78
2022/03/07 00:13:10;;;;;;;19.80;12.50;;;1.10;99.90;;;;;;6210148;23;20015;-77
2022/03/07 00:15:35;;;;;;;15.90;12.25;;;1.10;99.90;;;;;;6210708;23;20017;-78
2022/03/07 00:18:01;;;;;;;15.57;11.68;;;1.10;99.90;;;;;;6182013;23;20452;-78
2022/03/07 00:20:27;;;;;;;18.15;12.63;;;1.00;99.90;;;;;;6183616;23;20134;-77
2022/03/07 00:22:52;;;;;;;14.95;11.63;;;1.00;99.90;;;;;;6209520;23;20013;-77
2022/03/07 00:25:18;;;;;;;14.77;11.73;;;1.00;99.90;;;;;;6182157;23;20099;-78
2022/03/07 00:27:43;;;;;;;15.52;12.00;;;0.90;99.90;;;;;;6182481;23;20035;-78
2022/03/07 00:30:09;;;;;;;16.27;11.95;;;0.90;99.90;;;;;;6183346;23;20040;-78
2022/03/07 00:32:35;;;;;;;14.88;11.57;;;0.90;99.90;;;;;;6182196;23;20021;-78
2022/03/07 00:35:01;;;;;;;15.13;12.50;;;0.80;99.90;;;;;;6209956;23;20017;-78
2022/03/07 00:37:27;;;;;;;19.75;12.00;;;0.70;99.90;;;;;;6183460;23;20028;-78
2022/03/07 00:39:53;;;;;;;17.55;12.60;;;0.70;99.90;;;;;;6208918;23;20027;-78
2022/03/07 00:42:18;;;;;;;15.43;12.15;;;0.60;99.90;;;;;;6210532;23;20024;-78
2022/03/07 00:44:44;;;;;;;17.15;12.30;;;0.60;99.90;;;;;;6181870;23;20100;-78
2022/03/07 00:47:10;;;;;;;16.90;12.35;;;0.60;99.90;;;;;;6210272;23;20067;-78
2022/03/07 00:49:35;;;;;;;14.40;12.32;;;0.60;99.90;;;;;;6183567;23;20028;-78
2022/03/07 00:52:01;;;;;;;18.60;13.48;;;0.50;99.90;;;;;;6182196;23;20042;-78
2022/03/07 00:54:26;;;;;;;16.48;12.48;;;0.50;99.90;;;;;;6207563;23;20074;-77
2022/03/07 00:56:52;;;;;;;17.33;13.30;;;0.50;99.90;;;;;;6183424;23;20561;-78
2022/03/07 00:59:18;;;;;;;17.73;13.80;;;0.50;99.90;;;;;;6207735;23;20017;-79
2022/03/07 01:01:43;;;;;;;20.23;13.50;;;0.50;99.90;;;;;;6183347;23;20020;-78
2022/03/07 01:04:09;;;;;;;16.45;13.02;;;0.50;99.90;;;;;;6183111;23;20099;-78
2022/03/07 01:06:34;;;;;;;19.42;13.13;;;0.50;99.90;;;;;;6182363;23;20016;-78
2022/03/07 01:09:00;;;;;;;18.23;13.45;;;0.50;99.90;;;;;;6181335;23;20024;-78
2022/03/07 01:11:26;;;;;;;19.25;13.45;;;0.40;99.90;;;;;;6182853;23;20013;-78
2022/03/07 01:13:51;;;;;;;19.70;13.60;;;0.40;99.90;;;;;;6208215;23;20012;-78
2022/03/07 01:16:17;;;;;;;16.17;12.30;;;0.40;99.90;;;;;;6209363;23;20135;-78
2022/03/07 01:18:43;;;;;;;21.58;14.90;;;0.40;99.90;;;;;;6182579;23;20514;-78
2022/03/07 01:21:09;;;;;;;16.77;12.82;;;0.40;99.90;;;;;;6208718;23;20016;-78
2022/03/07 01:23:34;;;;;;;19.50;14.20;;;0.40;99.90;;;;;;6182302;23;20020;-78
2022/03/07 01:26:00;;;;;;;18.58;13.45;;;0.40;99.90;;;;;;6209527;23;20021;-78
2022/03/07 01:28:25;;;;;;;18.70;13.30;;;0.40;99.90;;;;;;6182314;23;20487;-78
2022/03/07 01:30:51;;;;;;;17.13;13.90;;;0.40;99.90;;;;;;6209553;23;20016;-78
2022/03/07 01:33:17;;;;;;;16.17;13.20;;;0.30;99.90;;;;;;6182621;23;20012;-78
2022/03/07 01:35:42;;;;;;;23.25;14.35;;;0.30;99.90;;;;;;6209253;23;20087;-78
2022/03/07 01:38:08;;;;;;;16.27;12.73;;;0.30;99.90;;;;;;6182636;23;20021;-78
2022/03/07 01:40:34;;;;;;;16.92;13.10;;;0.20;99.90;;;;;;6209639;23;20337;-78
2022/03/07 01:42:59;;;;;;;19.63;13.27;;;0.20;99.90;;;;;;6180712;23;20307;-78
2022/03/07 01:45:26;;;;;;;16.00;12.52;;;0.20;99.90;;;;;;6183576;23;20471;-78
2022/03/07 01:47:52;;;;;;;17.52;12.57;;;0.20;99.90;;;;;;6208287;23;20047;-78
2022/03/07 01:50:19;;;;;;;20.92;13.68;;;0.20;99.90;;;;;;6182859;23;20549;-78
2022/03/07 01:52:48;;;;;;;19.40;13.43;;;0.20;99.90;;;;;;6184069;23;20322;-78
2022/03/07 01:55:14;;;;;;;16.23;13.18;;;0.20;99.90;;;;;;6182062;23;20064;-78
2022/03/07 01:57:42;;;;;;;17.00;12.68;;;0.10;99.90;;;;;;6209808;23;20058;-78
2022/03/07 02:00:11;;;;;;;20.02;13.57;;;0.10;99.90;;;;;;6183031;23;20082;-78
2022/03/07 02:02:37;;;;;;;18.30;13.43;;;0.00;99.90;;;;;;6182165;23;20031;-78
2022/03/07 02:05:04;;;;;;;14.82;11.68;;;0.00;99.90;;;;;;6181363;23;20095;-78
2022/03/07 02:07:30;;;;;;;18.98;13.60;;;0.00;99.90;;;;;;6209968;23;20017;-78
2022/03/07 02:09:58;;;;;;;18.73;13.52;;;-0.10;99.90;;;;;;6208176;23;20059;-78
2022/03/07 02:12:24;;;;;;;17.90;14.60;;;-0.10;99.90;;;;;;6182837;23;20021;-78
2022/03/07 02:14:50;;;;;;;18.48;14.95;;;-0.10;99.90;;;;;;6208299;23;20091;-78
2022/03/07 02:17:16;;;;;;;19.00;14.63;;;-0.10;99.90;;;;;;6181946;23;20345;-78
2022/03/07 02:19:42;;;;;;;16.77;13.88;;;-0.10;99.90;;;;;;6208731;23;20248;-78
2022/03/07 02:22:10;;;;;;;17.98;13.98;;;0.00;99.90;;;;;;6181456;23;20017;-79
2022/03/07 02:24:36;;;;;;;16.10;12.45;;;-0.10;99.90;;;;;;6180678;23;20027;-78
2022/03/07 02:27:05;;;;;;;17.50;13.35;;;-0.10;99.90;;;;;;6182073;23;20020;-79
2022/03/07 02:29:31;;;;;;;15.35;13.38;;;-0.20;99.90;;;;;;6181610;23;20012;-78
2022/03/07 02:31:58;;;;;;;19.48;14.10;;;-0.20;99.90;;;;;;6181557;23;20096;-78
2022/03/07 02:34:24;;;;;;;19.63;14.27;;;-0.20;99.90;;;;;;6183234;23;20017;-77
2022/03/07 02:36:50;;;;;;;19.77;13.77;;;-0.20;99.90;;;;;;6182453;23;20096;-77
2022/03/07 02:39:16;;;;;;;19.98;14.00;;;-0.20;99.90;;;;;;6208459;23;20032;-77
2022/03/07 02:41:42;;;;;;;16.10;13.82;;;-0.30;99.90;;;;;;6182571;23;20396;-78
2022/03/07 02:44:08;;;;;;;22.27;15.48;;;-0.30;99.90;;;;;;6208692;23;20024;-77
2022/03/07 02:46:35;;;;;;;18.92;15.23;;;-0.30;99.90;;;;;;6183258;23;20045;-76
2022/03/07 02:49:00;;;;;;;22.25;15.93;;;-0.30;99.90;;;;;;6182573;23;20016;-76
2022/03/07 02:51:26;;;;;;;22.67;16.60;;;-0.30;99.90;;;;;;6209122;23;20009;-78
2022/03/07 02:53:52;;;;;;;19.40;14.65;;;-0.30;99.90;;;;;;6182192;23;20731;-78
2022/03/07 02:56:18;;;;;;;19.05;14.57;;;-0.30;99.90;;;;;;6183121;23;20013;-78
2022/03/07 02:58:44;;;;;;;19.83;14.55;;;-0.30;99.90;;;;;;6181577;23;20020;-78
2022/03/07 03:01:09;;;;;;;23.17;15.70;;;-0.30;99.90;;;;;;6182445;23;20049;-78
2022/03/07 03:03:35;;;;;;;19.02;15.32;;;-0.30;99.90;;;;;;6182736;23;20121;-78
2022/03/07 03:06:01;;;;;;;19.17;15.30;;;-0.30;99.90;;;;;;6181180;23;20024;-78
2022/03/07 03:08:26;;;;;;;18.73;14.50;;;-0.30;99.90;;;;;;6209357;23;20031;-78
2022/03/07 03:10:53;;;;;;;23.92;15.77;;;-0.30;99.90;;;;;;6182295;23;20017;-78
2022/03/07 03:13:20;;;;;;;20.73;15.70;;;-0.30;99.90;;;;;;6181872;23;20017;-78
2022/03/07 03:15:47;;;;;;;19.47;15.70;;;-0.20;99.90;;;;;;6182245;23;20464;-78
2022/03/07 03:18:13;;;;;;;19.15;14.70;;;-0.20;99.90;;;;;;6182705;23;20066;-78
2022/03/07 03:20:39;;;;;;;19.70;14.40;;;-0.20;99.90;;;;;;6182077;23;20021;-78
2022/03/07 03:23:05;;;;;;;21.65;15.43;;;-0.20;99.90;;;;;;6208750;23;20019;-77
2022/03/07 03:25:31;;;;;;;22.38;15.20;;;-0.20;99.90;;;;;;6209162;23;20029;-78
2022/03/07 03:27:57;;;;;;;22.48;15.23;;;-0.20;99.90;;;;;;6181158;23;20017;-78
2022/03/07 03:30:22;;;;;;;21.13;15.73;;;-0.20;99.90;;;;;;6182718;23;20099;-78
2022/03/07 03:32:48;;;;;;;19.88;15.52;;;-0.10;99.90;;;;;;6182025;23;20017;-78
2022/03/07 03:35:13;;;;;;;19.05;15.75;;;-0.10;99.90;;;;;;6208449;23;20083;-78
2022/03/07 03:37:39;;;;;;;20.48;14.38;;;-0.10;99.90;;;;;;6209533;23;20092;-79
2022/03/07 03:40:06;;;;;;;19.40;14.75;;;-0.10;99.90;;;;;;6212996;23;20013;-76
2022/03/07 03:42:32;;;;;;;18.80;14.68;;;-0.10;99.90;;;;;;6209376;23;20044;-79
2022/03/07 03:44:58;;;;;;;21.27;15.65;;;-0.10;99.90;;;;;;6156596;23;20071;-78
2022/03/07 03:47:23;;;;;;;21.17;15.90;;;-0.10;99.90;;;;;;6154090;23;20028;-78
2022/03/07 03:49:49;;;;;;;20.88;16.80;;;-0.10;99.90;;;;;;6180243;23;20733;-78
2022/03/07 03:52:15;;;;;;;21.85;16.08;;;-0.10;99.90;;;;;;6154681;23;20024;-78
2022/03/07 03:54:41;;;;;;;22.20;16.55;;;0.00;99.90;;;;;;6179825;23;20017;-78
2022/03/07 03:57:06;;;;;;;20.55;17.05;;;0.00;99.90;;;;;;6180919;23;20623;-77
2022/03/07 03:59:33;;;;;;;21.38;16.70;;;0.00;99.90;;;;;;6180987;23;20337;-77
2022/03/07 04:01:59;;;;;;;23.10;16.27;;;0.10;99.90;;;;;;6153102;23;20075;-78
2022/03/07 04:04:24;;;;;;;23.02;16.35;;;0.20;99.90;;;;;;6180906;23;20576;-78
2022/03/07 04:06:50;;;;;;;21.52;15.23;;;0.20;99.90;;;;;;6153663;23;20015;-78
2022/03/07 04:09:20;;;;;;;18.73;15.32;;;0.20;99.90;;;;;;6153844;23;20052;-78
2022/03/07 04:11:46;;;;;;;23.05;17.23;;;0.20;99.90;;;;;;6154013;23;20020;-78
2022/03/07 04:14:12;;;;;;;21.98;18.67;;;0.10;99.90;;;;;;6154242;23;20024;-78
2022/03/07 04:16:38;;;;;;;24.35;17.15;;;0.20;99.90;;;;;;6180390;23;20017;-78
2022/03/07 04:19:10;;;;;;;21.77;16.27;;;0.20;99.90;;;;;;6153770;23;20017;-78
2022/03/07 04:21:38;;;;;;;22.70;16.33;;;0.20;99.90;;;;;;6154117;23;20091;-78
2022/03/07 04:24:05;;;;;;;19.38;14.73;;;0.20;99.90;;;;;;6152533;23;20040;-78
2022/03/07 04:26:31;;;;;;;21.30;16.43;;;0.10;99.90;;;;;;6180275;23;20024;-78
2022/03/07 04:28:57;;;;;;;26.48;18.00;;;0.10;99.90;;;;;;6153880;23;20021;-78
2022/03/07 04:31:22;;;;;;;22.40;17.23;;;0.10;99.90;;;;;;6180136;23;20136;-78
2022/03/07 04:33:49;;;;;;;23.30;17.65;;;0.10;99.90;;;;;;6153536;23;20048;-78
2022/03/07 04:36:17;;;;;;;22.88;16.67;;;0.20;99.90;;;;;;6180943;23;20353;-78
2022/03/07 04:38:43;;;;;;;19.88;16.05;;;0.20;99.90;;;;;;6179007;23;20017;-78
2022/03/07 04:41:08;;;;;;;23.77;17.73;;;0.10;99.90;;;;;;6180843;23;20345;-78
2022/03/07 04:43:34;;;;;;;22.75;17.55;;;0.10;99.90;;;;;;6189787;23;20226;-78
2022/03/07 04:46:00;;;;;;;25.63;18.33;;;0.20;99.90;;;;;;6182426;23;20024;-78
2022/03/07 04:48:25;;;;;;;24.63;17.20;;;0.20;99.90;;;;;;6184279;23;20326;-78
2022/03/07 04:50:51;;;;;;;21.33;17.02;;;0.20;99.90;;;;;;6181919;23;20448;-78
2022/03/07 04:53:17;;;;;;;20.40;18.00;;;0.20;99.90;;;;;;6183898;23;20028;-78
2022/03/07 04:55:43;;;;;;;25.70;18.27;;;0.10;99.90;;;;;;6183359;23;20424;-78
2022/03/07 04:58:08;;;;;;;21.90;18.27;;;0.20;99.90;;;;;;6183049;23;20051;-78
2022/03/07 05:00:34;;;;;;;21.48;16.95;;;0.10;99.90;;;;;;6183890;23;20091;-79
2022/03/07 05:03:00;;;;;;;23.42;17.85;;;0.20;99.90;;;;;;6182988;23;20062;-78
2022/03/07 05:05:25;;;;;;;23.00;17.52;;;0.10;99.90;;;;;;6183024;23;20447;-78
2022/03/07 05:07:52;;;;;;;22.02;17.67;;;0.10;99.90;;;;;;6209998;23;20017;-78
2022/03/07 05:10:19;;;;;;;24.67;18.70;;;0.10;99.90;;;;;;6210717;23;20052;-78
2022/03/07 05:12:45;;;;;;;22.38;17.50;;;0.10;99.90;;;;;;6208488;23;20023;-78
2022/03/07 05:15:11;;;;;;;23.02;18.48;;;0.10;99.90;;;;;;6210612;23;20020;-78
2022/03/07 05:17:45;;;;;;;26.38;19.60;;;0.10;99.90;;;;;;6183489;23;20401;-78
2022/03/07 05:20:12;;;;;;;25.25;19.33;;;0.10;99.90;;;;;;6182769;23;20020;-78
2022/03/07 05:22:44;;;;;;;29.23;20.25;;;0.10;99.90;;;;;;6183580;23;20047;-78
2022/03/07 05:25:11;;;;;;;24.02;19.10;;;0.10;99.90;;;;;;6183031;23;20016;-77
2022/03/07 05:27:38;;;;;;;24.55;19.02;;;0.10;99.90;;;;;;6212206;23;20548;-77
2022/03/07 05:30:04;;;;;;;24.42;18.88;;;0.10;99.90;;;;;;6182993;23;20044;-78
2022/03/07 05:32:30;;;;;;;22.87;18.70;;;0.10;99.90;;;;;;6209998;23;20021;-78
2022/03/07 05:34:56;;;;;;;21.83;17.77;;;0.10;99.90;;;;;;6182239;23;20023;-77
2022/03/07 05:37:21;;;;;;;28.38;20.42;;;0.00;99.90;;;;;;6183764;23;20040;-78
2022/03/07 05:39:47;;;;;;;26.52;20.60;;;0.00;99.90;;;;;;6182915;23;20380;-78
2022/03/07 05:42:13;;;;;;;27.23;20.10;;;0.00;99.90;;;;;;6182591;23;20016;-78
2022/03/07 05:44:39;;;;;;;23.13;16.92;;;0.00;99.90;;;;;;6209808;23;20071;-78
2022/03/07 05:47:05;;;;;;;24.55;19.52;;;0.00;99.90;;;;;;6181902;23;20020;-78
2022/03/07 05:49:30;;;;;;;24.92;18.75;;;-0.10;99.90;;;;;;6183372;23;20148;-78
2022/03/07 05:51:56;;;;;;;25.65;18.83;;;-0.10;99.90;;;;;;6182979;23;20063;-78
2022/03/07 05:54:21;;;;;;;24.67;19.85;;;-0.20;99.90;;;;;;6181843;23;20082;-78
2022/03/07 05:56:47;;;;;;;25.23;20.25;;;-0.10;99.90;;;;;;6209650;23;20032;-78
2022/03/07 05:59:13;;;;;;;24.52;19.77;;;-0.10;99.90;;;;;;6183368;23;20146;-78
2022/03/07 06:01:39;;;;;;;23.50;19.25;;;-0.10;99.90;;;;;;6208672;23;20479;-78
2022/03/07 06:04:04;;;;;;;23.38;18.98;;;-0.10;99.90;;;;;;6209234;23;20016;-78
2022/03/07 06:06:30;;;;;;;24.10;19.02;;;-0.10;99.90;;;;;;6182644;23;20510;-78
2022/03/07 06:08:56;;;;;;;23.45;18.65;;;-0.10;99.90;;;;;;6208342;23;20029;-78
2022/03/07 06:11:21;;;;;;;25.15;19.55;;;-0.10;99.90;;;;;;6209075;23;20020;-78
2022/03/07 06:13:47;;;;;;;22.42;17.83;;;-0.10;99.90;;;;;;6181934;23;20348;-78
2022/03/07 06:16:13;;;;;;;23.58;18.88;;;-0.10;99.90;;;;;;6208965;23;20016;-78
2022/03/07 06:18:38;;;;;;;27.52;20.27;;;-0.20;99.90;;;;;;6183490;23;20454;-78
2022/03/07 06:21:05;;;;;;;28.20;20.73;;;-0.20;99.90;;;;;;6182393;23;20021;-78
2022/03/07 06:23:31;;;;;;;26.35;20.20;;;-0.10;99.90;;;;;;6181622;23;20027;-78
2022/03/07 06:25:57;;;;;;;24.88;18.90;;;-0.10;99.90;;;;;;6182416;23;20059;-78
2022/03/07 06:28:22;;;;;;;24.70;18.42;;;-0.10;99.90;;;;;;6182502;23;20017;-78
2022/03/07 06:30:48;;;;;;;23.70;18.77;;;-0.10;99.90;;;;;;6207557;23;20020;-77
2022/03/07 06:33:17;;;;;;;26.13;19.30;;;0.00;99.90;;;;;;6210002;23;20436;-77
2022/03/07 06:35:43;;;;;;;27.20;20.10;;;0.00;99.90;;;;;;6182570;23;20023;-80
2022/03/07 06:38:09;;;;;;;27.70;20.33;;;0.00;99.90;;;;;;6205562;23;20012;-80
2022/03/07 06:40:35;;;;;;;24.13;19.58;;;0.00;99.90;;;;;;6181333;23;20021;-80
2022/03/07 06:43:01;;;;;;;23.88;18.98;;;0.00;99.90;;;;;;6207725;23;20012;-80
2022/03/07 06:45:28;;;;;;;31.98;23.48;;;0.00;99.90;;;;;;6208409;23;20103;-81
2022/03/07 06:47:53;;;;;;;32.03;23.23;;;0.00;99.90;;;;;;6181819;23;20310;-76
2022/03/07 06:50:19;;;;;;;29.48;23.77;;;0.00;99.90;;;;;;6181433;23;20070;-79
2022/03/07 06:52:45;;;;;;;29.25;22.70;;;0.00;99.90;;;;;;6181790;23;20020;-78
2022/03/07 06:55:12;;;;;;;27.65;22.42;;;0.00;99.90;;;;;;6182009;23;20071;-79
2022/03/07 06:57:41;;;;;;;27.83;23.35;;;0.00;99.90;;;;;;6180763;23;20538;-79
2022/03/07 07:00:10;;;;;;;30.25;23.02;;;0.10;99.90;;;;;;6195279;23;20029;-79
2022/03/07 07:02:36;;;;;;;26.75;22.00;;;0.10;99.90;;;;;;6182145;23;20017;-79
2022/03/07 07:05:02;;;;;;;28.08;22.60;;;0.10;99.90;;;;;;6180667;23;20025;-79
2022/03/07 07:07:31;;;;;;;27.03;22.20;;;0.10;99.90;;;;;;6182220;23;20021;-79
2022/03/07 07:09:57;;;;;;;30.40;23.25;;;0.20;99.90;;;;;;6181189;23;20017;-79
2022/03/07 07:12:23;;;;;;;30.05;23.50;;;0.20;99.90;;;;;;6207852;23;20013;-78
2022/03/07 07:14:49;;;;;;;38.88;25.33;;;0.30;99.90;;;;;;6185392;23;20021;-79
2022/03/07 07:17:15;;;;;;;32.67;24.45;;;0.30;99.90;;;;;;6184381;23;20035;-79
2022/03/07 07:19:41;;;;;;;32.70;24.10;;;0.30;99.90;;;;;;6182346;23;20020;-79
2022/03/07 07:22:07;;;;;;;30.10;22.38;;;0.40;99.90;;;;;;6209439;23;20019;-79
2022/03/07 07:24:32;;;;;;;32.78;23.65;;;0.40;99.90;;;;;;6183893;23;20483;-78
2022/03/07 07:26:58;;;;;;;30.95;23.40;;;0.50;99.90;;;;;;6209560;23;20013;-79
2022/03/07 07:29:23;;;;;;;30.33;23.52;;;0.60;99.90;;;;;;6210686;23;20449;-78
2022/03/07 07:31:51;;;;;;;29.65;24.20;;;0.80;99.90;;;;;;6209909;23;20025;-76
2022/03/07 07:34:17;;;;;;;32.38;25.02;;;0.90;99.90;;;;;;6183152;23;20044;-79
2022/03/07 07:36:43;;;;;;;28.90;24.55;;;1.00;99.90;;;;;;6208910;23;20543;-79
2022/03/07 07:39:09;;;;;;;30.40;23.13;;;1.10;99.90;;;;;;6183553;23;20044;-79
2022/03/07 07:41:35;;;;;;;27.90;23.25;;;1.20;99.90;;;;;;6182765;23;20027;-79
2022/03/07 07:44:01;;;;;;;29.10;23.10;;;1.30;99.90;;;;;;6182296;23;20043;-79
2022/03/07 07:46:26;;;;;;;30.45;22.45;;;1.40;99.90;;;;;;6183506;23;20024;-79
2022/03/07 07:48:52;;;;;;;25.70;21.70;;;1.50;99.90;;;;;;6181757;23;20024;-79
2022/03/07 07:51:18;;;;;;;30.80;22.83;;;1.60;99.90;;;;;;6183578;23;20063;-79
2022/03/07 07:53:43;;;;;;;27.52;21.13;;;1.70;99.90;;;;;;6208867;23;20397;-78
2022/03/07 07:56:10;;;;;;;25.85;21.08;;;1.80;99.90;;;;;;6183520;23;20027;-79
2022/03/07 07:58:36;;;;;;;24.63;20.95;;;1.90;99.90;;;;;;6183090;23;20031;-79
2022/03/07 08:01:02;;;;;;;27.70;21.38;;;1.90;99.90;;;;;;6181863;23;20020;-79
2022/03/07 08:03:28;;;;;;;27.30;21.05;;;2.00;99.90;;;;;;6182864;23;20016;-79
2022/03/07 08:05:53;;;;;;;25.05;19.45;;;2.10;99.90;;;;;;6182737;23;20024;-78
2022/03/07 08:08:19;;;;;;;30.27;21.23;;;2.20;99.90;;;;;;6209358;23;20013;-77
2022/03/07 08:10:44;;;;;;;26.67;19.45;;;2.30;99.90;;;;;;6182660;23;20420;-79
2022/03/07 08:13:11;;;;;;;24.48;18.23;;;2.40;99.90;;;;;;6211522;23;20052;-78
2022/03/07 08:15:37;;;;;;;23.35;18.63;;;2.50;99.90;;;;;;6184089;23;20099;-77
2022/03/07 08:18:03;;;;;;;24.20;19.38;;;2.50;99.90;;;;;;6183193;23;20520;-75
2022/03/07 08:20:28;;;;;;;20.92;16.25;;;2.70;99.90;;;;;;6183946;23;20008;-75
2022/03/07 08:22:55;;;;;;;20.20;15.07;;;2.80;99.90;;;;;;6183965;23;20322;-75
2022/03/07 08:25:22;;;;;;;22.70;15.43;;;2.80;99.90;;;;;;6210967;23;20693;-75
2022/03/07 08:27:48;;;;;;;20.27;14.93;;;2.90;99.90;;;;;;6184913;23;20331;-72
2022/03/07 08:30:16;;;;;;;21.02;17.77;;;3.00;99.90;;;;;;6184386;23;20028;-76
2022/03/07 08:32:42;;;;;;;19.30;15.55;;;3.10;99.90;;;;;;6184946;23;20016;-72
2022/03/07 08:35:10;;;;;;;19.17;15.95;;;3.10;99.90;;;;;;6210875;23;20023;-72
2022/03/07 08:37:37;;;;;;;21.25;15.57;;;3.20;99.90;;;;;;6210808;23;20012;-73
2022/03/07 08:40:05;;;;;;;20.27;17.63;;;3.30;99.90;;;;;;6184112;23;20336;-73
2022/03/07 08:42:31;;;;;;;17.50;14.93;;;3.40;99.90;;;;;;6184879;23;20095;-75
2022/03/07 08:44:57;;;;;;;18.00;16.10;;;3.40;99.90;;;;;;6183129;23;20056;-77
2022/03/07 08:47:23;;;;;;;18.77;14.80;;;3.50;99.90;;;;;;6184552;23;20052;-73
2022/03/07 08:49:49;;;;;;;16.92;14.18;;;3.60;99.90;;;;;;6184328;23;20511;-72
2022/03/07 08:52:17;;;;;;;17.88;14.10;;;3.60;99.90;;;;;;6211465;23;20148;-73
2022/03/07 08:54:44;;;;;;;18.35;14.60;;;3.70;99.90;;;;;;6210999;23;20016;-72
2022/03/07 08:57:10;;;;;;;18.37;15.23;;;3.80;99.90;;;;;;6184132;23;20345;-75
2022/03/07 08:59:36;;;;;;;17.90;14.70;;;3.80;99.90;;;;;;6185226;23;20012;-77
2022/03/07 09:02:02;;;;;;;18.40;14.27;;;3.90;99.90;;;;;;6213206;23;20020;-73
2022/03/07 09:04:28;;;;;;;18.08;15.35;;;4.00;99.90;;;;;;6183735;23;20025;-76
2022/03/07 09:06:54;;;;;;;19.52;15.60;;;4.00;99.90;;;;;;6183911;23;20009;-75
2022/03/07 09:09:19;;;;;;;15.25;12.38;;;4.10;99.90;;;;;;6184736;23;20352;-76
2022/03/07 09:11:45;;;;;;;16.30;12.88;;;4.10;99.90;;;;;;6210359;23;20019;-76
2022/03/07 09:14:11;;;;;;;16.25;12.98;;;4.20;99.90;;;;;;6184988;23;20044;-76
2022/03/07 09:16:37;;;;;;;16.75;11.80;;;4.20;99.90;;;;;;6211945;23;20021;-76
2022/03/07 09:19:03;;;;;;;15.55;12.23;;;4.30;99.90;;;;;;6210153;23;20071;-75
2022/03/07 09:21:29;;;;;;;16.45;12.63;;;4.30;99.90;;;;;;6211891;23;20071;-76
2022/03/07 09:23:55;;;;;;;17.58;12.35;;;4.30;99.90;;;;;;6184576;23;20024;-76
2022/03/07 09:26:20;;;;;;;15.43;11.23;;;4.40;99.90;;;;;;6183709;23;20071;-76
2022/03/07 09:28:46;;;;;;;14.32;10.95;;;4.40;99.90;;;;;;6210251;23;20031;-74
2022/03/07 09:31:11;;;;;;;15.15;10.57;;;4.40;99.90;;;;;;6185023;23;20060;-73
2022/03/07 09:33:38;;;;;;;16.27;9.25;;;4.40;99.90;;;;;;6183516;23;20159;-75
2022/03/07 09:36:04;;;;;;;11.35;7.80;;;4.60;99.90;;;;;;6210450;23;20017;-77
2022/03/07 09:38:31;;;;;;;14.43;7.90;;;4.70;99.90;;;;;;6184266;23;20055;-77
2022/03/07 09:40:57;;;;;;;12.53;7.53;;;4.70;99.90;;;;;;6210112;23;20016;-79
2022/03/07 09:43:23;;;;;;;14.27;9.68;;;4.80;99.90;;;;;;6184299;23;20287;-76
2022/03/07 09:45:49;;;;;;;13.73;9.88;;;4.90;99.90;;;;;;6184059;23;20377;-74
2022/03/07 09:48:15;;;;;;;12.48;9.00;;;4.90;99.90;;;;;;6183639;23;20020;-76
2022/03/07 09:50:43;;;;;;;15.90;10.02;;;4.90;99.90;;;;;;6211399;23;20043;-73
2022/03/07 09:53:09;;;;;;;14.27;10.00;;;4.90;99.90;;;;;;6209945;23;20449;-72
2022/03/07 09:55:36;;;;;;;15.52;11.35;;;4.90;99.90;;;;;;6184434;23;20012;-75
2022/03/07 09:58:04;;;;;;;16.83;10.57;;;4.90;99.90;;;;;;6184295;23;20070;-72
2022/03/07 10:00:29;;;;;;;14.68;10.82;;;5.00;99.90;;;;;;6183837;23;20020;-74
2022/03/07 10:03:07;;;;;;;15.25;11.20;;;5.10;99.90;;;;;;6183222;23;20484;-77
2022/03/07 10:05:36;;;;;;;15.15;11.05;;;5.10;99.90;;;;;;6210851;23;20017;-74
2022/03/07 10:08:03;;;;;;;16.52;11.70;;;5.10;99.90;;;;;;6183108;23;20016;-76
2022/03/07 10:10:30;;;;;;;16.67;12.82;;;5.20;99.90;;;;;;6184394;23;20020;-81
2022/03/07 10:12:56;;;;;;;18.25;12.48;;;5.30;99.90;;;;;;6184293;23;20044;-79
2022/03/07 10:15:23;;;;;;;15.18;10.70;;;5.40;99.90;;;;;;6183247;23;20484;-82
2022/03/07 10:17:54;;;;;;;15.05;11.13;;;5.50;99.90;;;;;;6210930;23;20021;-77
2022/03/07 10:20:21;;;;;;;15.60;11.05;;;5.60;99.90;;;;;;6211527;23;20012;-76
2022/03/07 10:22:53;;;;;;;14.32;10.75;;;5.70;99.90;;;;;;6183183;23;20405;-76
2022/03/07 10:25:30;;;;;;;11.55;10.18;;;5.80;99.90;;;;;;6183775;23;20075;-76
2022/03/07 10:27:59;;;;;;;13.25;10.20;;;6.00;99.90;;;;;;6181856;23;20027;-79
2022/03/07 10:30:27;;;;;;;13.68;9.50;;;6.10;99.90;;;;;;6182850;23;20021;-77
2022/03/07 10:32:55;;;;;;;11.55;8.57;;;6.10;99.90;;;;;;6184331;23;20021;-76
2022/03/07 10:35:30;;;;;;;13.60;9.20;;;6.20;99.90;;;;;;6210217;23;20088;-76
2022/03/07 10:38:02;;;;;;;13.60;8.38;;;6.20;99.90;;;;;;6183847;23;20475;-76
2022/03/07 10:40:30;;;;;;;13.27;8.95;;;6.30;99.90;;;;;;6182392;23;20452;-76
2022/03/07 10:42:55;;;;;;;11.50;8.73;;;6.30;99.90;;;;;;6209293;23;20100;-76
2022/03/07 10:45:22;;;;;;;11.13;8.45;;;6.40;99.90;;;;;;6184096;23;20060;-76
2022/03/07 10:48:04;;;;;;;13.40;9.07;;;6.40;99.90;;;;;;6183747;23;20015;-76
2022/03/07 10:50:30;;;;;;;14.45;9.43;;;6.30;99.90;;;;;;6184168;23;20020;-76
2022/03/07 10:53:05;;;;;;;13.57;9.30;;;6.20;99.90;;;;;;6206316;23;20012;-74
2022/03/07 10:55:33;;;;;;;11.65;9.63;;;6.10;99.90;;;;;;6182339;23;20396;-74
2022/03/07 10:58:12;;;;;;;12.25;8.48;;;6.10;99.90;;;;;;6182054;23;20017;-76
2022/03/07 11:00:50;;;;;;;13.43;8.75;;;6.10;99.90;;;;;;6182805;23;20440;-75
2022/03/07 11:03:22;;;;;;;9.85;8.38;;;6.10;99.90;;;;;;6183140;23;20461;-76
2022/03/07 11:05:48;;;;;;;11.43;8.32;;;6.20;99.90;;;;;;6209267;23;20087;-75
2022/03/07 11:08:15;;;;;;;14.30;9.98;;;6.20;99.90;;;;;;6183811;23;20012;-75
2022/03/07 11:10:52;;;;;;;13.77;9.45;;;6.30;99.90;;;;;;6182782;23;20491;-75
2022/03/07 11:13:28;;;;;;;13.73;9.32;;;6.40;99.90;;;;;;6210835;23;20017;-75
2022/03/07 11:16:01;;;;;;;14.98;9.50;;;6.40;99.90;;;;;;6182987;23;20066;-75
2022/03/07 11:18:29;;;;;;;13.23;9.15;;;6.50;99.90;;;;;;6182817;23;20090;-74
2022/03/07 11:20:57;;;;;;;13.35;10.65;;;6.40;99.90;;;;;;6182706;23;20017;-76
2022/03/07 11:23:23;;;;;;;14.00;10.23;;;6.50;99.90;;;;;;6209935;23;20505;-75
2022/03/07 11:25:50;;;;;;;13.35;9.80;;;6.60;99.90;;;;;;6208177;23;20088;-75
2022/03/07 11:28:16;;;;;;;11.57;8.63;;;6.70;99.90;;;;;;6211140;23;20012;-79
2022/03/07 11:30:43;;;;;;;16.48;8.98;;;6.80;99.90;;;;;;6184242;23;20111;-76
2022/03/07 11:33:14;;;;;;;10.32;7.95;;;6.90;99.90;;;;;;6182843;23;20019;-75
2022/03/07 11:35:48;;;;;;;10.05;6.97;;;7.00;99.90;;;;;;6210089;23;20025;-75
2022/03/07 11:38:15;;;;;;;9.80;6.60;;;7.10;99.90;;;;;;6210493;23;20106;-73
2022/03/07 11:41:06;;;;;;;10.18;6.75;;;7.20;99.90;;;;;;6209135;23;20016;-77
2022/03/07 11:43:35;;;;;;;10.48;7.28;;;7.30;99.90;;;;;;6182866;23;20035;-79
2022/03/07 11:46:03;;;;;;;8.65;7.38;;;7.30;99.90;;;;;;6209305;23;20048;-79
2022/03/07 11:48:44;;;;;;;8.23;6.80;;;7.40;99.90;;;;;;6182681;23;20013;-76
2022/03/07 11:51:30;;;;;;;13.30;8.00;;;7.40;99.90;;;;;;6183358;23;20012;-76
2022/03/07 11:53:56;;;;;;;10.50;7.82;;;7.40;99.90;;;;;;6181807;23;20025;-76
2022/03/07 11:56:26;;;;;;;10.50;6.70;;;7.40;99.90;;;;;;6210921;23;20056;-76
2022/03/07 11:58:55;;;;;;;9.13;6.55;;;7.40;99.90;;;;;;6210277;23;20408;-76
2022/03/07 12:01:25;;;;;;;11.88;6.63;;;7.40;98.90;;;;;;6209572;23;20441;-75
2022/03/07 12:03:52;;;;;;;7.93;5.97;;;7.40;99.30;;;;;;6210009;23;20044;-72
2022/03/07 12:06:20;;;;;;;9.07;6.65;;;7.40;97.80;;;;;;6211721;23;20332;-71
2022/03/07 12:08:52;;;;;;;8.68;6.20;;;7.50;96.60;;;;;;6210424;23;20024;-72
2022/03/07 12:11:32;;;;;;;8.73;6.85;;;7.50;95.80;;;;;;6212169;23;20427;-71
2022/03/07 12:14:04;;;;;;;8.18;5.95;;;7.50;96.50;;;;;;6183158;23;20016;-73
2022/03/07 12:16:34;;;;;;;8.10;6.07;;;7.50;95.00;;;;;;6212117;23;20016;-73
2022/03/07 12:19:19;;;;;;;8.30;5.88;;;7.60;93.90;;;;;;6211039;23;20576;-74
2022/03/07 12:21:47;;;;;;;7.93;6.30;;;7.60;91.90;;;;;;6183185;23;20020;-72
2022/03/07 12:24:14;;;;;;;8.10;5.95;;;7.50;93.00;;;;;;6185122;23;20091;-73
2022/03/07 12:26:55;;;;;;;8.77;5.55;;;7.50;90.90;;;;;;6185110;23;20059;-72
2022/03/07 12:29:25;;;;;;;7.80;5.60;;;7.40;89.70;;;;;;6210905;23;20031;-73
2022/03/07 12:31:53;;;;;;;8.85;5.45;;;7.40;87.40;;;;;;6183160;23;20017;-73
2022/03/07 12:34:27;;;;;;;8.63;5.72;;;7.40;89.40;;;;;;6183860;23;20024;-72
2022/03/07 12:37:10;;;;;;;9.57;5.82;;;7.40;88.40;;;;;;6210698;23;20024;-72